Time;durP1;ratioP1;P1;durP2;ratioP2;P2;SDS_P1;SDS_P2;PMS_P1;PMS_P2;Temp;Humidity;BMP_temperature;BMP_pressure;BME280_temperature;BME280_humidity;BME280_pressure;Samples;Min_cycle;Max_cycle;Signal;HPM_P1;HPM_P2
2022/05/02 00:01:31;;;;;;;0.70;0.70;;;2.40;99.90;;;;;;5037794;28;20209;-78
2022/05/02 00:03:57;;;;;;;0.70;0.70;;;2.40;99.90;;;;;;5035199;28;20248;-78
2022/05/02 00:06:23;;;;;;;0.80;0.80;;;2.30;99.90;;;;;;5035045;28;20285;-78
2022/05/02 00:08:49;;;;;;;0.77;0.77;;;2.30;99.90;;;;;;5039913;28;20197;-78
2022/05/02 00:11:14;;;;;;;0.70;0.70;;;2.20;99.90;;;;;;5054816;28;20336;-78
2022/05/02 00:13:40;;;;;;;0.70;0.70;;;2.20;99.90;;;;;;5053265;28;20228;-78
2022/05/02 00:16:07;;;;;;;0.73;0.73;;;2.20;99.90;;;;;;5036972;28;20217;-78
2022/05/02 00:18:33;;;;;;;0.80;0.80;;;2.20;99.90;;;;;;5051392;28;20280;-77
2022/05/02 00:20:59;;;;;;;0.60;0.60;;;2.20;99.90;;;;;;5051943;28;20313;-78
2022/05/02 00:23:24;;;;;;;0.98;0.98;;;2.10;99.90;;;;;;5052770;28;20284;-77
2022/05/02 00:25:50;;;;;;;0.70;0.70;;;2.20;99.90;;;;;;5054552;28;20189;-78
2022/05/02 00:28:16;;;;;;;0.70;0.70;;;2.20;99.90;;;;;;5053056;28;20209;-78
2022/05/02 00:30:43;;;;;;;0.70;0.70;;;2.10;99.90;;;;;;5036654;28;20201;-77
2022/05/02 00:33:09;;;;;;;0.70;0.70;;;2.10;99.90;;;;;;5054676;28;20208;-78
2022/05/02 00:35:35;;;;;;;0.68;0.68;;;2.00;99.90;;;;;;5036796;28;20220;-78
2022/05/02 00:38:00;;;;;;;0.85;0.85;;;1.90;99.90;;;;;;5033235;28;20194;-77
2022/05/02 00:40:26;;;;;;;0.70;0.70;;;1.90;99.90;;;;;;5034627;28;20190;-77
2022/05/02 00:42:52;;;;;;;1.10;1.10;;;1.90;99.90;;;;;;5034639;28;20222;-78
2022/05/02 00:45:19;;;;;;;0.80;0.80;;;1.80;99.90;;;;;;5032444;28;20201;-78
2022/05/02 00:47:55;;;;;;;0.60;0.60;;;1.90;99.90;;;;;;5034744;28;20228;-78
2022/05/02 00:50:38;;;;;;;0.60;0.60;;;1.80;99.90;;;;;;5032990;28;20194;-78
2022/05/02 00:53:06;;;;;;;0.70;0.70;;;1.80;99.90;;;;;;5033065;28;20271;-78
2022/05/02 00:55:32;;;;;;;0.80;0.80;;;1.70;99.90;;;;;;5034650;28;20653;-78
2022/05/02 00:57:59;;;;;;;0.70;0.70;;;1.70;99.90;;;;;;5045826;28;20204;-77
2022/05/02 01:00:27;;;;;;;0.65;0.65;;;1.70;99.90;;;;;;5053035;28;20197;-78
2022/05/02 01:02:53;;;;;;;0.63;0.63;;;1.70;99.90;;;;;;5053951;28;20200;-77
2022/05/02 01:05:19;;;;;;;0.70;0.70;;;1.70;99.90;;;;;;5035230;28;20213;-78
2022/05/02 01:07:46;;;;;;;0.80;0.80;;;1.60;99.90;;;;;;5053215;28;20221;-77
2022/05/02 01:10:16;;;;;;;0.65;0.65;;;1.60;99.90;;;;;;5035444;28;20228;-77
2022/05/02 01:12:44;;;;;;;0.80;0.80;;;1.60;99.90;;;;;;5054007;28;20217;-78
2022/05/02 01:15:10;;;;;;;0.70;0.70;;;1.60;99.90;;;;;;5055028;28;20205;-78
2022/05/02 01:17:37;;;;;;;0.80;0.80;;;1.60;99.90;;;;;;5052811;28;20193;-78
2022/05/02 01:20:08;;;;;;;0.70;0.70;;;1.60;99.90;;;;;;5053212;28;20287;-77
2022/05/02 01:22:33;;;;;;;0.93;0.93;;;1.50;99.90;;;;;;5052527;28;20247;-78
2022/05/02 01:24:59;;;;;;;0.80;0.80;;;1.50;99.90;;;;;;5036454;28;20201;-78
2022/05/02 01:27:25;;;;;;;0.70;0.70;;;1.50;99.90;;;;;;5035454;28;20201;-78
2022/05/02 01:29:50;;;;;;;0.70;0.70;;;1.50;99.90;;;;;;5053789;28;20190;-78
2022/05/02 01:32:16;;;;;;;0.80;0.80;;;1.50;99.90;;;;;;5035754;28;20275;-78
2022/05/02 01:34:43;;;;;;;0.70;0.70;;;1.50;99.90;;;;;;5035392;28;20225;-78
2022/05/02 01:37:10;;;;;;;0.70;0.70;;;1.50;99.90;;;;;;5052066;28;20569;-78
2022/05/02 01:39:36;;;;;;;0.80;0.80;;;1.40;99.90;;;;;;5052571;28;20197;-78
2022/05/02 01:42:04;;;;;;;0.80;0.80;;;1.40;99.90;;;;;;5053546;28;20555;-78
2022/05/02 01:44:30;;;;;;;0.80;0.80;;;1.40;99.90;;;;;;5051957;28;20281;-77
2022/05/02 01:46:56;;;;;;;0.70;0.70;;;1.40;99.90;;;;;;5052582;28;20205;-78
2022/05/02 01:49:22;;;;;;;0.60;0.60;;;1.40;99.90;;;;;;5051834;28;20627;-78
2022/05/02 01:51:48;;;;;;;0.60;0.60;;;1.40;99.90;;;;;;5053482;28;20276;-78
2022/05/02 01:54:14;;;;;;;0.70;0.70;;;1.30;99.90;;;;;;5052322;28;20193;-78
2022/05/02 01:56:40;;;;;;;0.70;0.70;;;1.30;99.90;;;;;;5038714;28;20198;-77
2022/05/02 01:59:06;;;;;;;0.70;0.70;;;1.20;99.90;;;;;;5055843;28;20201;-77
2022/05/02 02:01:32;;;;;;;0.70;0.70;;;1.20;99.90;;;;;;5054715;28;20286;-77
2022/05/02 02:06:49;;;;;;;0.73;0.73;;;1.20;99.90;;;;;;5016383;28;20748;-78
2022/05/02 02:09:15;;;;;;;0.70;0.70;;;1.30;99.90;;;;;;5039206;28;20682;-77
2022/05/02 02:11:41;;;;;;;0.60;0.60;;;1.20;99.90;;;;;;5038719;28;20236;-78
2022/05/02 02:14:07;;;;;;;0.70;0.70;;;1.20;99.90;;;;;;5056866;28;20205;-78
2022/05/02 02:16:33;;;;;;;0.70;0.70;;;1.20;99.90;;;;;;5038548;28;20292;-78
2022/05/02 02:18:59;;;;;;;0.60;0.60;;;1.20;99.90;;;;;;5038381;28;20284;-78
2022/05/02 02:21:24;;;;;;;0.70;0.70;;;1.20;99.90;;;;;;5034643;28;20242;-78
2022/05/02 02:23:50;;;;;;;0.68;0.68;;;1.20;99.90;;;;;;5018827;28;20206;-78
2022/05/02 02:26:16;;;;;;;0.68;0.68;;;1.30;99.90;;;;;;5037070;28;20537;-77
2022/05/02 02:28:42;;;;;;;0.60;0.60;;;1.30;99.90;;;;;;5036843;28;20189;-78
2022/05/02 02:31:08;;;;;;;0.60;0.60;;;1.30;99.90;;;;;;5036549;28;20200;-77
2022/05/02 02:33:33;;;;;;;0.70;0.70;;;1.30;99.90;;;;;;5035220;28;20281;-78
2022/05/02 02:35:59;;;;;;;0.60;0.60;;;1.30;99.90;;;;;;5018689;28;20224;-77
2022/05/02 02:38:25;;;;;;;0.70;0.70;;;1.30;99.90;;;;;;5018575;28;20202;-77
2022/05/02 02:40:51;;;;;;;0.80;0.80;;;1.20;99.90;;;;;;5036399;28;20587;-77
2022/05/02 02:43:17;;;;;;;1.33;1.23;;;1.10;99.90;;;;;;5036542;28;20237;-78
2022/05/02 02:45:43;;;;;;;0.70;0.70;;;1.20;99.90;;;;;;5036481;28;20201;-78
2022/05/02 02:48:09;;;;;;;0.70;0.70;;;1.10;99.90;;;;;;5036496;28;20194;-77
2022/05/02 02:50:35;;;;;;;0.70;0.70;;;1.10;99.90;;;;;;5017820;28;20190;-78
2022/05/02 02:53:00;;;;;;;0.70;0.70;;;1.10;99.90;;;;;;5036132;28;20195;-78
2022/05/02 02:55:27;;;;;;;0.70;0.70;;;1.10;99.90;;;;;;5036465;28;20361;-78
2022/05/02 02:57:53;;;;;;;0.63;0.63;;;1.10;99.90;;;;;;5026021;28;20201;-77
2022/05/02 03:00:20;;;;;;;0.70;0.70;;;1.10;99.90;;;;;;5048918;28;20297;-77
2022/05/02 03:02:46;;;;;;;0.57;0.57;;;1.00;99.90;;;;;;5033964;28;20569;-77
2022/05/02 03:07:58;;;;;;;0.70;0.70;;;1.00;99.90;;;;;;5035239;28;20688;-78
2022/05/02 03:10:24;;;;;;;0.75;0.75;;;0.90;99.90;;;;;;5034371;28;20291;-78
2022/05/02 03:12:50;;;;;;;0.70;0.70;;;1.00;99.90;;;;;;5034877;28;20198;-78
2022/05/02 03:15:15;;;;;;;0.68;0.68;;;1.00;99.90;;;;;;5036156;28;20200;-78
2022/05/02 03:17:41;;;;;;;0.63;0.63;;;1.00;99.90;;;;;;5034704;28;20194;-77
2022/05/02 03:20:08;;;;;;;0.73;0.73;;;1.00;99.90;;;;;;5034958;28;20198;-78
2022/05/02 03:22:33;;;;;;;0.80;0.80;;;1.10;99.90;;;;;;5037193;28;20688;-77
2022/05/02 03:24:59;;;;;;;0.70;0.70;;;1.10;99.90;;;;;;5055745;28;20217;-77
2022/05/02 03:27:26;;;;;;;0.70;0.70;;;1.10;99.90;;;;;;5054874;28;20189;-78
2022/05/02 03:29:52;;;;;;;0.68;0.68;;;1.10;99.90;;;;;;5054971;28;20200;-77
2022/05/02 03:32:17;;;;;;;0.65;0.65;;;1.10;99.90;;;;;;5053557;28;20626;-78
2022/05/02 03:34:43;;;;;;;0.80;0.80;;;1.10;99.90;;;;;;5053603;28;20216;-78
2022/05/02 03:37:09;;;;;;;0.60;0.60;;;1.10;99.90;;;;;;5054827;28;20204;-79
2022/05/02 03:39:35;;;;;;;0.60;0.60;;;1.20;99.90;;;;;;5053859;28;20640;-78
2022/05/02 03:42:02;;;;;;;0.80;0.80;;;1.10;99.90;;;;;;5036436;28;20250;-77
2022/05/02 03:44:28;;;;;;;0.70;0.70;;;1.30;99.90;;;;;;5036495;28;20206;-78
2022/05/02 03:46:53;;;;;;;0.80;0.80;;;1.30;99.90;;;;;;5055104;28;20196;-77
2022/05/02 03:49:19;;;;;;;0.68;0.68;;;1.30;99.90;;;;;;5055093;28;20244;-78
2022/05/02 03:51:45;;;;;;;0.80;0.80;;;1.40;99.90;;;;;;5055328;28;20224;-78
2022/05/02 03:54:10;;;;;;;0.70;0.70;;;1.50;99.90;;;;;;5063062;28;20193;-78
2022/05/02 03:56:36;;;;;;;0.70;0.70;;;1.60;99.90;;;;;;5057192;28;20679;-77
2022/05/02 03:59:03;;;;;;;0.60;0.60;;;1.70;99.90;;;;;;5056528;28;20283;-78
2022/05/02 04:01:28;;;;;;;0.60;0.60;;;1.80;99.90;;;;;;5057632;28;20711;-77
2022/05/02 04:03:54;;;;;;;0.80;0.80;;;1.90;99.90;;;;;;5052324;28;20245;-77
2022/05/02 04:06:20;;;;;;;0.95;0.95;;;2.10;99.90;;;;;;5054589;28;20194;-78
2022/05/02 04:08:46;;;;;;;0.70;0.70;;;2.20;99.90;;;;;;5053623;28;20679;-77
2022/05/02 04:11:11;;;;;;;0.70;0.70;;;2.30;99.90;;;;;;5053423;28;20200;-77
2022/05/02 04:13:38;;;;;;;0.80;0.80;;;2.40;99.90;;;;;;5053111;28;20198;-77
2022/05/02 04:16:04;;;;;;;0.68;0.68;;;2.60;99.90;;;;;;5053238;28;20189;-77
2022/05/02 04:18:29;;;;;;;0.77;0.77;;;2.80;99.90;;;;;;5036351;28;20228;-78
2022/05/02 04:20:55;;;;;;;0.80;0.80;;;2.90;99.90;;;;;;5054199;28;20189;-77
2022/05/02 04:23:21;;;;;;;0.70;0.70;;;2.90;99.90;;;;;;5061171;28;20275;-77
2022/05/02 04:25:46;;;;;;;0.70;0.70;;;3.00;99.90;;;;;;5074723;28;20195;-77
2022/05/02 04:28:13;;;;;;;0.68;0.68;;;3.10;99.90;;;;;;5073070;28;20236;-76
2022/05/02 04:30:38;;;;;;;0.70;0.70;;;3.10;99.90;;;;;;5074189;28;20273;-77
2022/05/02 04:33:04;;;;;;;0.70;0.70;;;3.20;99.90;;;;;;5072262;28;20648;-77
2022/05/02 04:35:30;;;;;;;0.70;0.70;;;3.20;99.90;;;;;;5073844;28;20224;-77
2022/05/02 04:37:57;;;;;;;0.70;0.70;;;3.30;99.90;;;;;;5072979;28;20607;-77
2022/05/02 04:40:23;;;;;;;0.70;0.70;;;3.50;99.90;;;;;;5072415;28;20204;-77
2022/05/02 04:42:48;;;;;;;0.80;0.80;;;3.60;99.90;;;;;;5074638;28;20597;-77
2022/05/02 04:45:14;;;;;;;0.93;0.93;;;3.80;99.90;;;;;;5074048;28;20192;-77
2022/05/02 04:47:40;;;;;;;0.60;0.60;;;3.80;99.90;;;;;;5073726;28;20669;-77
2022/05/02 04:50:06;;;;;;;0.80;0.80;;;3.90;99.90;;;;;;5050407;28;20271;-77
2022/05/02 04:52:31;;;;;;;0.88;0.88;;;3.80;99.90;;;;;;5035653;28;20200;-77
2022/05/02 04:54:57;;;;;;;0.65;0.65;;;3.80;99.90;;;;;;5035904;28;20189;-77
2022/05/02 04:57:23;;;;;;;0.75;0.75;;;3.80;99.90;;;;;;5053301;28;20608;-76
2022/05/02 04:59:48;;;;;;;0.70;0.70;;;3.70;99.90;;;;;;5053200;28;20564;-76
2022/05/02 05:02:16;;;;;;;0.75;0.75;;;3.70;99.90;;;;;;5035327;28;20556;-78
2022/05/02 05:04:41;;;;;;;0.80;0.80;;;3.60;99.90;;;;;;5035025;28;20668;-77
2022/05/02 05:07:07;;;;;;;0.70;0.70;;;3.60;99.90;;;;;;5053223;28;20197;-78
2022/05/02 05:09:33;;;;;;;0.80;0.80;;;3.80;99.90;;;;;;5053093;28;20194;-77
2022/05/02 05:12:26;;;;;;;0.70;0.70;;;3.90;99.90;;;;;;5035608;28;20564;-77
2022/05/02 05:17:53;;;;;;;0.70;0.70;;;4.50;99.90;;;;;;5053050;28;20256;-77
2022/05/02 05:20:37;;;;;;;0.70;0.70;;;4.90;99.90;;;;;;5037633;28;20209;-77
2022/05/02 05:23:17;;;;;;;0.77;0.77;;;5.30;99.90;;;;;;5034576;28;20680;-77
2022/05/02 05:25:58;;;;;;;0.80;0.80;;;5.60;99.90;;;;;;5034913;28;20197;-77
2022/05/02 05:28:37;;;;;;;0.70;0.70;;;5.90;99.90;;;;;;5052925;28;20635;-77
2022/05/02 05:31:40;;;;;;;0.70;0.70;;;6.20;99.90;;;;;;5034887;28;20568;-77
2022/05/02 05:34:16;;;;;;;0.60;0.60;;;6.50;99.90;;;;;;5053239;28;20186;-77
2022/05/02 05:37:21;;;;;;;0.70;0.70;;;6.60;99.90;;;;;;5035015;28;20201;-77
2022/05/02 05:40:11;;;;;;;0.70;0.70;;;6.90;99.90;;;;;;5053207;28;20193;-77
2022/05/02 05:42:48;;;;;;;0.70;0.70;;;7.10;99.90;;;;;;5052751;28;20657;-77
2022/05/02 05:45:55;;;;;;;0.60;0.60;;;7.30;99.90;;;;;;5035359;28;20200;-77
2022/05/02 05:48:54;;;;;;;0.68;0.68;;;7.50;99.90;;;;;;5031460;28;20585;-78
2022/05/02 05:51:36;;;;;;;0.70;0.70;;;7.80;99.90;;;;;;5031615;28;20684;-79
2022/05/02 05:54:17;;;;;;;0.60;0.60;;;7.90;99.90;;;;;;5015326;28;20676;-77
2022/05/02 05:57:10;;;;;;;0.70;0.70;;;8.00;99.90;;;;;;5038064;28;20272;-77
2022/05/02 06:00:03;;;;;;;0.80;0.80;;;8.20;99.90;;;;;;5034956;28;20197;-78
2022/05/02 06:02:54;;;;;;;0.70;0.70;;;8.30;99.90;;;;;;5054108;28;20207;-77
2022/05/02 06:05:20;;;;;;;0.57;0.57;;;8.50;99.90;;;;;;5047436;28;20209;-77
2022/05/02 06:07:47;;;;;;;0.65;0.65;;;8.70;99.90;;;;;;5052822;28;20533;-77
2022/05/02 06:10:16;;;;;;;0.60;0.60;;;8.90;99.90;;;;;;5052056;28;20682;-76
2022/05/02 06:12:43;;;;;;;0.60;0.60;;;9.10;99.90;;;;;;5052552;28;20204;-77
2022/05/02 06:20:43;;;;;;;0.60;0.60;;;9.40;99.90;;;;;;5071963;28;20200;-77
2022/05/02 06:23:15;;;;;;;0.60;0.60;;;9.60;99.90;;;;;;5054746;28;20213;-77
2022/05/02 06:25:45;;;;;;;0.80;0.80;;;9.80;99.90;;;;;;5054520;28;20566;-77
2022/05/02 06:28:13;;;;;;;0.60;0.60;;;9.90;99.90;;;;;;5055008;28;20292;-77
2022/05/02 06:30:42;;;;;;;0.60;0.60;;;10.00;99.90;;;;;;5054603;28;20572;-79
2022/05/02 06:33:13;;;;;;;0.50;0.50;;;10.30;99.90;;;;;;5054805;28;20280;-78
2022/05/02 06:35:54;;;;;;;0.50;0.50;;;10.60;99.90;;;;;;5072767;28;20193;-78
2022/05/02 06:38:44;;;;;;;0.70;0.70;;;10.70;99.90;;;;;;5054645;28;20271;-78
2022/05/02 06:41:24;;;;;;;0.60;0.60;;;10.80;99.90;;;;;;5072656;28;20219;-77
2022/05/02 06:44:05;;;;;;;1.83;1.30;;;10.90;99.90;;;;;;5041891;28;20323;-78
2022/05/02 06:46:41;;;;;;;0.55;0.55;;;11.00;99.90;;;;;;5038419;28;20676;-77
2022/05/02 06:49:16;;;;;;;0.60;0.60;;;11.20;99.90;;;;;;5056442;28;20194;-77
2022/05/02 06:51:49;;;;;;;0.50;0.50;;;11.40;99.90;;;;;;5037862;28;20194;-77
2022/05/02 06:54:44;;;;;;;0.50;0.50;;;11.50;99.90;;;;;;5037835;28;20201;-78
2022/05/02 06:57:18;;;;;;;0.50;0.50;;;11.60;99.90;;;;;;5038405;28;20206;-78
2022/05/02 07:00:02;;;;;;;0.52;0.52;;;11.70;99.90;;;;;;5039916;28;20193;-78
2022/05/02 07:02:44;;;;;;;0.50;0.50;;;11.90;99.90;;;;;;5057484;28;20667;-77
2022/05/02 07:05:44;;;;;;;0.60;0.60;;;12.00;99.90;;;;;;5074494;28;20566;-77
2022/05/02 07:08:11;;;;;;;0.40;0.40;;;12.20;99.90;;;;;;5057568;28;20193;-77
2022/05/02 07:10:41;;;;;;;0.50;0.50;;;12.50;99.90;;;;;;5074812;28;20673;-78
2022/05/02 07:13:15;;;;;;;0.50;0.50;;;12.80;99.90;;;;;;5058352;28;20201;-77
2022/05/02 07:15:45;;;;;;;0.50;0.50;;;12.70;99.90;;;;;;5037681;28;20655;-78
2022/05/02 07:18:40;;;;;;;0.50;0.50;;;12.90;99.90;;;;;;5037795;28;20300;-78
2022/05/02 07:21:34;;;;;;;0.50;0.50;;;13.10;99.90;;;;;;5033107;28;20249;-77
2022/05/02 07:24:33;;;;;;;0.50;0.50;;;13.00;99.90;;;;;;5035565;28;20221;-78
2022/05/02 07:27:36;;;;;;;0.50;0.50;;;13.20;99.90;;;;;;5017929;28;20198;-77
2022/05/02 07:30:02;;;;;;;0.50;0.50;;;13.40;99.90;;;;;;5017705;28;20672;-77
2022/05/02 07:32:30;;;;;;;0.40;0.40;;;13.50;99.90;;;;;;5035146;28;20654;-77
2022/05/02 07:34:58;;;;;;;0.60;0.60;;;13.50;99.90;;;;;;5035485;28;20276;-78
2022/05/02 07:37:24;;;;;;;0.50;0.50;;;13.50;99.90;;;;;;5017040;28;20200;-77
2022/05/02 07:39:51;;;;;;;0.40;0.40;;;13.60;99.90;;;;;;5035026;28;20198;-77
2022/05/02 07:42:22;;;;;;;0.47;0.47;;;13.70;99.90;;;;;;5035067;28;20217;-78
2022/05/02 07:44:51;;;;;;;0.50;0.50;;;13.80;99.90;;;;;;5034432;28;20665;-78
2022/05/02 07:47:18;;;;;;;0.50;0.50;;;14.10;99.90;;;;;;5034990;28;20186;-78
2022/05/02 07:49:50;;;;;;;0.40;0.40;;;14.30;99.00;;;;;;5013700;28;20650;-77
2022/05/02 07:52:23;;;;;;;1.85;1.38;;;14.30;97.40;;;;;;4997371;28;20630;-78
2022/05/02 07:54:51;;;;;;;0.40;0.40;;;14.20;97.30;;;;;;5013661;28;20203;-77
2022/05/02 07:57:19;;;;;;;0.45;0.45;;;14.40;97.40;;;;;;5028106;28;20213;-78
2022/05/02 07:59:54;;;;;;;0.40;0.40;;;14.70;96.00;;;;;;5033952;28;20230;-77
2022/05/02 08:02:21;;;;;;;0.60;0.60;;;14.60;95.80;;;;;;5017150;28;20382;-78
2022/05/02 08:04:47;;;;;;;0.45;0.45;;;14.60;95.90;;;;;;5033742;28;20695;-77
2022/05/02 08:07:54;;;;;;;0.40;0.40;;;14.60;95.90;;;;;;5034730;28;20191;-78
2022/05/02 08:10:59;;;;;;;0.40;0.40;;;14.80;95.40;;;;;;4992828;28;20209;-78
2022/05/02 08:13:38;;;;;;;0.45;0.45;;;14.90;94.80;;;;;;4992254;28;20211;-77
2022/05/02 08:16:30;;;;;;;0.40;0.40;;;14.70;94.20;;;;;;4976817;28;20694;-77
2022/05/02 08:19:02;;;;;;;0.30;0.30;;;15.20;94.30;;;;;;4989790;28;20298;-78
2022/05/02 08:21:36;;;;;;;0.40;0.40;;;15.20;94.50;;;;;;5005090;28;20771;-78
2022/05/02 08:27:19;;;;;;;0.40;0.40;;;15.90;92.90;;;;;;5031638;28;20272;-77
2022/05/02 08:30:15;;;;;;;0.30;0.30;;;16.40;91.60;;;;;;5032307;28;20198;-77
2022/05/02 08:32:42;;;;;;;0.40;0.40;;;16.40;89.50;;;;;;5032046;28;20201;-78
2022/05/02 08:35:17;;;;;;;0.40;0.40;;;15.90;87.50;;;;;;5037813;28;20307;-77
2022/05/02 08:38:15;;;;;;;0.30;0.30;;;15.80;88.10;;;;;;5051973;28;20252;-78
2022/05/02 08:41:19;;;;;;;0.50;0.50;;;15.60;88.60;;;;;;5042482;28;20215;-77
2022/05/02 08:43:55;;;;;;;0.60;0.60;;;15.60;88.40;;;;;;5044939;28;20232;-78
2022/05/02 08:46:55;;;;;;;0.45;0.40;;;15.50;87.90;;;;;;5038695;28;20252;-78
2022/05/02 08:49:47;;;;;;;0.30;0.30;;;15.90;88.60;;;;;;5032575;28;20719;-78
2022/05/02 08:52:21;;;;;;;0.30;0.30;;;15.80;86.40;;;;;;5021323;28;20220;-78
2022/05/02 08:55:17;;;;;;;0.30;0.30;;;15.90;87.70;;;;;;5052296;28;20258;-78
2022/05/02 08:57:55;;;;;;;0.32;0.32;;;16.00;85.90;;;;;;5035719;28;20197;-78
2022/05/02 09:00:30;;;;;;;0.30;0.30;;;16.30;83.40;;;;;;5053738;28;20547;-78
2022/05/02 09:03:15;;;;;;;0.30;0.30;;;16.50;84.40;;;;;;5052426;28;20201;-78
2022/05/02 09:06:11;;;;;;;0.30;0.30;;;16.70;81.50;;;;;;5051672;28;20204;-78
2022/05/02 09:09:02;;;;;;;0.30;0.30;;;16.70;80.60;;;;;;5055522;28;20193;-77
2022/05/02 09:11:58;;;;;;;0.30;0.30;;;16.60;83.50;;;;;;5054718;28;20180;-78
2022/05/02 09:14:51;;;;;;;0.40;0.35;;;16.60;81.60;;;;;;5041903;28;20318;-78
2022/05/02 09:17:36;;;;;;;0.30;0.30;;;17.00;82.30;;;;;;5073430;28;20189;-78
2022/05/02 09:20:23;;;;;;;0.30;0.30;;;17.60;80.50;;;;;;5055590;28;20295;-78
2022/05/02 09:23:27;;;;;;;0.30;0.30;;;17.90;76.90;;;;;;5055073;28;20695;-78
2022/05/02 09:26:29;;;;;;;0.30;0.30;;;17.50;77.70;;;;;;5055943;28;20231;-78
2022/05/02 09:29:10;;;;;;;0.30;0.30;;;17.80;79.00;;;;;;5073537;28;20189;-78
2022/05/02 09:31:58;;;;;;;0.30;0.30;;;18.00;77.20;;;;;;5051750;28;20687;-78
2022/05/02 09:34:27;;;;;;;0.35;0.35;;;17.90;74.60;;;;;;5052083;28;20197;-77
2022/05/02 09:37:21;;;;;;;0.20;0.20;;;17.90;73.50;;;;;;5051893;28;20209;-77
2022/05/02 09:40:08;;;;;;;0.20;0.20;;;18.00;72.90;;;;;;5052050;28;20197;-77
2022/05/02 09:42:58;;;;;;;0.30;0.30;;;17.90;75.30;;;;;;5051704;28;20209;-78
2022/05/02 09:52:08;;;;;;;0.30;0.30;;;18.50;72.50;;;;;;5053102;28;20190;-77
2022/05/02 09:57:35;;;;;;;0.40;0.40;;;17.70;72.90;;;;;;5052966;28;20216;-78
2022/05/02 10:03:24;;;;;;;0.35;0.35;;;17.70;73.40;;;;;;5022284;28;20313;-78
2022/05/02 10:06:10;;;;;;;0.38;0.38;;;17.80;72.10;;;;;;5053135;28;20201;-78
2022/05/02 10:09:02;;;;;;;0.47;0.40;;;17.80;72.10;;;;;;5052721;28;20210;-78
2022/05/02 10:11:46;;;;;;;0.28;0.28;;;18.10;74.20;;;;;;5052642;28;20614;-78
2022/05/02 10:14:57;;;;;;;0.20;0.20;;;19.10;71.00;;;;;;5034927;28;20202;-78
2022/05/02 10:17:41;;;;;;;0.22;0.22;;;18.80;68.80;;;;;;5053285;28;20558;-78
2022/05/02 10:20:20;;;;;;;0.30;0.30;;;19.60;69.50;;;;;;5037484;28;20202;-78
2022/05/02 10:23:02;;;;;;;0.30;0.30;;;19.80;68.70;;;;;;5056343;28;20229;-78
2022/05/02 10:25:30;;;;;;;0.20;0.20;;;18.90;68.20;;;;;;5038677;28;20266;-78
2022/05/02 10:28:09;;;;;;;0.30;0.30;;;18.80;69.70;;;;;;5046498;28;20201;-78
2022/05/02 10:30:53;;;;;;;0.30;0.30;;;18.50;69.50;;;;;;5036540;28;20244;-78
2022/05/02 10:33:44;;;;;;;0.30;0.30;;;18.10;70.20;;;;;;5036342;28;20248;-80
2022/05/02 10:36:11;;;;;;;0.30;0.30;;;17.80;72.00;;;;;;5037077;28;20374;-79
2022/05/02 10:38:45;;;;;;;0.30;0.30;;;17.70;71.50;;;;;;5035221;28;20293;-79
2022/05/02 10:41:12;;;;;;;0.30;0.30;;;17.00;74.40;;;;;;5036564;28;20198;-79
2022/05/02 10:43:44;;;;;;;0.25;0.25;;;17.30;73.20;;;;;;5035220;28;20246;-79
2022/05/02 10:46:12;;;;;;;0.20;0.20;;;17.50;73.60;;;;;;5045636;28;20658;-79
2022/05/02 10:49:12;;;;;;;0.45;0.38;;;17.60;72.60;;;;;;5035969;28;21221;-78
2022/05/02 10:52:16;;;;;;;0.30;0.30;;;17.20;74.40;;;;;;5017509;28;20293;-80
2022/05/02 10:54:56;;;;;;;0.32;0.32;;;17.40;73.20;;;;;;5018343;28;20212;-81
2022/05/02 10:57:50;;;;;;;0.30;0.30;;;17.50;74.90;;;;;;5045339;28;20200;-79
2022/05/02 11:00:16;;;;;;;0.20;0.20;;;18.50;70.80;;;;;;5031545;28;20668;-80
2022/05/02 11:02:50;;;;;;;0.30;0.30;;;19.40;70.20;;;;;;5018020;28;20570;-78
2022/05/02 11:05:18;;;;;;;0.30;0.30;;;18.80;66.10;;;;;;5018527;28;20194;-79
2022/05/02 11:07:49;;;;;;;0.38;0.38;;;18.50;70.50;;;;;;5034962;28;20202;-79
2022/05/02 11:10:19;;;;;;;0.30;0.30;;;18.40;70.00;;;;;;5035002;28;20661;-78
2022/05/02 11:13:27;;;;;;;0.30;0.30;;;18.00;71.90;;;;;;5034766;28;20661;-78
2022/05/02 11:16:04;;;;;;;0.20;0.20;;;18.20;72.50;;;;;;4997153;28;20206;-79
2022/05/02 11:22:19;;;;;;;0.30;0.30;;;17.60;69.20;;;;;;5046256;28;20236;-79
2022/05/02 11:25:07;;;;;;;0.30;0.30;;;17.10;72.50;;;;;;5056000;28;20206;-80
2022/05/02 11:27:54;;;;;;;0.30;0.30;;;16.90;71.20;;;;;;5057728;28;20197;-80
2022/05/02 11:30:27;;;;;;;0.30;0.30;;;17.00;74.10;;;;;;5058065;28;20808;-80
2022/05/02 11:33:15;;;;;;;0.30;0.30;;;17.50;72.00;;;;;;5057799;28;20196;-79
2022/05/02 11:35:48;;;;;;;0.30;0.30;;;18.20;70.70;;;;;;5053232;28;20563;-80
2022/05/02 11:38:39;;;;;;;0.20;0.20;;;18.90;68.50;;;;;;5037608;28;20198;-79
2022/05/02 11:41:18;;;;;;;0.47;0.40;;;19.30;68.30;;;;;;5055173;28;20667;-80
2022/05/02 11:43:45;;;;;;;0.20;0.20;;;18.40;65.10;;;;;;5052897;28;20209;-80
2022/05/02 11:46:24;;;;;;;0.20;0.20;;;17.90;66.80;;;;;;5053512;28;20284;-80
2022/05/02 11:49:02;;;;;;;0.40;0.40;;;17.30;69.40;;;;;;5054844;28;20200;-79
2022/05/02 11:51:43;;;;;;;0.30;0.30;;;17.10;69.30;;;;;;5053131;28;20189;-79
2022/05/02 11:54:28;;;;;;;0.30;0.30;;;17.10;69.80;;;;;;5054148;28;20197;-79
2022/05/02 11:57:06;;;;;;;0.40;0.40;;;17.20;69.90;;;;;;5054915;28;20193;-79
2022/05/02 11:59:51;;;;;;;0.30;0.30;;;16.80;70.10;;;;;;5054640;28;20656;-78
2022/05/02 12:02:44;;;;;;;0.30;0.30;;;16.70;71.00;;;;;;5054904;28;20189;-79
2022/05/02 12:05:25;;;;;;;0.30;0.30;;;16.80;72.00;;;;;;5054397;28;20218;-79
2022/05/02 12:07:54;;;;;;;0.30;0.30;;;17.20;71.90;;;;;;5053910;28;20347;-79
2022/05/02 12:10:31;;;;;;;0.30;0.30;;;17.20;69.70;;;;;;5036841;28;20208;-79
2022/05/02 12:12:57;;;;;;;0.30;0.30;;;17.10;69.60;;;;;;5054534;28;20198;-79
2022/05/02 12:15:24;;;;;;;0.30;0.30;;;16.80;70.10;;;;;;5054523;28;20578;-78
2022/05/02 12:17:50;;;;;;;0.30;0.30;;;16.50;72.30;;;;;;5036102;28;20197;-79
2022/05/02 12:20:30;;;;;;;0.40;0.40;;;16.40;72.10;;;;;;5054882;28;20304;-79
2022/05/02 12:23:04;;;;;;;0.30;0.30;;;16.70;71.90;;;;;;5067820;28;20288;-79
2022/05/02 12:25:33;;;;;;;0.57;0.57;;;17.10;70.00;;;;;;5069336;28;20641;-79
2022/05/02 12:28:03;;;;;;;0.40;0.40;;;17.20;69.10;;;;;;5036537;28;20251;-78
2022/05/02 12:30:30;;;;;;;0.30;0.30;;;17.50;68.50;;;;;;5052337;28;20193;-79
2022/05/02 12:33:02;;;;;;;0.30;0.30;;;16.90;69.20;;;;;;5054252;28;20563;-79
2022/05/02 12:35:41;;;;;;;0.30;0.30;;;16.90;71.00;;;;;;5053887;28;20226;-79
2022/05/02 12:38:12;;;;;;;0.30;0.30;;;16.60;72.20;;;;;;5036035;28;20209;-79
2022/05/02 12:40:41;;;;;;;0.30;0.30;;;16.50;70.60;;;;;;5052862;28;20613;-79
2022/05/02 12:43:17;;;;;;;0.30;0.30;;;16.50;71.40;;;;;;5036009;28;20742;-79
2022/05/02 12:45:47;;;;;;;0.30;0.30;;;16.50;72.10;;;;;;5054290;28;20587;-80
2022/05/02 12:48:54;;;;;;;0.30;0.30;;;16.70;71.70;;;;;;5053937;28;20243;-80
2022/05/02 12:51:27;;;;;;;0.40;0.40;;;16.50;70.80;;;;;;5006378;28;20673;-80
2022/05/02 12:54:10;;;;;;;0.22;0.22;;;16.60;71.60;;;;;;5033914;28;20278;-79
2022/05/02 13:02:40;;;;;;;0.30;0.30;;;16.60;71.80;;;;;;5055884;28;20228;-78
2022/05/02 13:05:32;;;;;;;0.32;0.32;;;16.30;73.30;;;;;;5053164;28;20189;-79
2022/05/02 13:08:11;;;;;;;0.47;0.47;;;16.50;73.00;;;;;;5052312;28;20695;-80
2022/05/02 13:10:39;;;;;;;0.28;0.28;;;16.60;75.30;;;;;;5053779;28;20189;-79
2022/05/02 13:13:06;;;;;;;0.30;0.30;;;16.60;72.60;;;;;;5053728;28;20193;-78
2022/05/02 13:15:55;;;;;;;0.30;0.30;;;16.40;74.00;;;;;;5051303;28;20225;-79
2022/05/02 13:18:22;;;;;;;0.30;0.30;;;16.60;74.30;;;;;;5053283;28;20208;-78
2022/05/02 13:21:11;;;;;;;0.30;0.30;;;16.90;73.80;;;;;;5051332;28;20204;-79
2022/05/02 13:23:42;;;;;;;0.30;0.30;;;17.10;72.10;;;;;;5053298;28;20209;-80
2022/05/02 13:26:13;;;;;;;0.30;0.30;;;17.30;70.90;;;;;;5052028;28;20201;-79
2022/05/02 13:28:56;;;;;;;0.20;0.20;;;17.30;70.70;;;;;;5052497;28;20641;-79
2022/05/02 13:31:45;;;;;;;0.50;0.50;;;17.20;71.90;;;;;;5051527;28;20206;-78
2022/05/02 13:34:32;;;;;;;0.30;0.30;;;17.10;70.10;;;;;;5053005;28;20210;-78
2022/05/02 13:37:22;;;;;;;0.30;0.30;;;16.90;68.80;;;;;;5033272;28;20637;-79
2022/05/02 13:40:02;;;;;;;0.22;0.22;;;16.60;70.00;;;;;;5035286;28;20202;-79
2022/05/02 13:42:53;;;;;;;0.30;0.30;;;16.60;72.00;;;;;;5053647;28;20714;-79
2022/05/02 13:45:29;;;;;;;0.30;0.30;;;16.80;70.00;;;;;;5044032;28;20566;-78
2022/05/02 13:48:08;;;;;;;0.32;0.32;;;16.90;68.20;;;;;;5053757;28;20202;-79
2022/05/02 13:50:41;;;;;;;0.40;0.40;;;16.90;68.20;;;;;;5053134;28;20192;-79
2022/05/02 13:53:33;;;;;;;0.30;0.30;;;16.90;66.80;;;;;;5057099;28;20190;-78
2022/05/02 13:56:07;;;;;;;0.30;0.30;;;16.70;68.10;;;;;;5057502;28;20235;-79
2022/05/02 13:59:05;;;;;;;0.30;0.30;;;17.30;67.80;;;;;;5039479;28;20304;-79
2022/05/02 14:01:49;;;;;;;0.40;0.40;;;17.90;66.30;;;;;;5050707;28;20667;-80
2022/05/02 14:07:13;;;;;;;0.30;0.30;;;18.50;62.50;;;;;;5057472;28;20197;-78
2022/05/02 14:09:49;;;;;;;0.40;0.40;;;18.10;64.60;;;;;;5056879;28;20216;-79
2022/05/02 14:12:23;;;;;;;0.20;0.20;;;17.50;65.00;;;;;;5056937;28;20268;-79
2022/05/02 14:15:10;;;;;;;0.30;0.30;;;17.60;67.20;;;;;;5073322;28;20188;-79